Terminal Aerodrome Forecast
Issued by NWS Sterling, VA

Home | Current Version | Previous Version | Text Only | Print | Product List | Glossary On
Versions: 1 2 3 4 5 6 7 8 9 10 11 12 13 14 15 16 17 18 19
000
FTUS41 KLWX 231100
TAFMRB
TAF
KMRB 231129Z 2312/2412 32014G22KT P6SM SCT050 BKN070
     FM232000 32010G20KT P6SM SCT090
     FM240200 31011KT P6SM SCT150=

USA.gov is the U.S. government's official web portal to all federal, state and local government web resources and services.